createdAt,value
2022-10-01T00:02:09.138Z,20.42
2022-10-01T00:04:38.234Z,19.18
2022-10-01T00:07:11.132Z,18.19
2022-10-01T00:09:39.910Z,18.24
2022-10-01T00:12:08.360Z,20.33
2022-10-01T00:14:39.447Z,20.88
2022-10-01T00:17:07.707Z,19.72
2022-10-01T00:19:35.874Z,18.67
2022-10-01T00:22:07.019Z,17.92
2022-10-01T00:24:36.932Z,18.83
2022-10-01T00:27:05.003Z,20.87
2022-10-01T00:29:33.487Z,20.63
2022-10-01T00:32:02.342Z,19.42
2022-10-01T00:34:30.550Z,18.46
2022-10-01T00:36:58.723Z,18.29
2022-10-01T00:39:26.795Z,20.28
2022-10-01T00:41:54.865Z,21.11
2022-10-01T00:44:32.562Z,20.01
2022-10-01T00:47:19.782Z,18.86
2022-10-01T00:49:50.925Z,17.99
2022-10-01T00:52:25.039Z,18.81
2022-10-01T00:54:57.923Z,20.93
2022-10-01T00:57:27.837Z,20.69
2022-10-01T01:00:00.251Z,19.47
2022-10-01T01:02:28.548Z,18.49
2022-10-01T01:04:56.864Z,18.32
2022-10-01T01:07:25.141Z,20.28
2022-10-01T01:09:54.645Z,20.95
2022-10-01T01:13:09.514Z,19.83
2022-10-01T01:15:58.023Z,18.48
2022-10-01T01:18:30.440Z,18.43
2022-10-01T01:20:58.407Z,20.52
2022-10-01T01:23:44.807Z,20.89
2022-10-01T01:26:31.823Z,19.58
2022-10-01T01:29:09.520Z,18.49
2022-10-01T01:31:46.500Z,17.82
2022-10-01T01:34:21.227Z,19.22
2022-10-01T01:36:56.170Z,20.86
2022-10-01T01:39:28.637Z,20.04
2022-10-01T01:42:03.747Z,18.90
2022-10-01T01:44:38.601Z,18.03
2022-10-01T01:47:10.666Z,18.54
2022-10-01T01:49:39.851Z,20.64
2022-10-01T01:52:16.171Z,20.71
2022-10-01T01:54:47.886Z,19.47
2022-10-01T01:57:20.870Z,18.46
2022-10-01T01:59:49.149Z,18.29
2022-10-01T02:02:23.888Z,20.26
2022-10-01T02:04:56.452Z,20.90
2022-10-01T02:07:47.153Z,19.73
2022-10-01T02:10:25.378Z,18.58
2022-10-01T02:12:53.851Z,17.87
2022-10-01T02:15:32.497Z,19.08
2022-10-01T02:18:18.044Z,20.89
2022-10-01T02:20:50.929Z,20.06
2022-10-01T02:23:33.930Z,18.90
2022-10-01T02:26:15.333Z,17.98
2022-10-01T02:28:46.004Z,18.52
2022-10-01T02:31:16.321Z,20.64
2022-10-01T02:33:46.031Z,20.70
2022-10-01T02:36:16.574Z,19.47
2022-10-01T02:38:46.523Z,18.43
2022-10-01T02:41:20.657Z,17.78
2022-10-01T02:44:15.458Z,19.29
2022-10-01T02:47:08.102Z,20.78
2022-10-01T02:49:37.513Z,19.58
2022-10-01T02:52:20.937Z,18.49
2022-10-01T02:54:58.326Z,17.74
2022-10-01T02:57:27.735Z,19.28
2022-10-01T03:00:02.151Z,20.78
2022-10-01T03:02:31.916Z,19.93
2022-10-01T03:05:00.845Z,18.78
2022-10-01T03:07:32.306Z,17.93
2022-10-01T03:10:00.477Z,18.86
2022-10-01T03:12:28.653Z,20.76
2022-10-01T03:14:56.723Z,20.55
2022-10-01T03:17:25.326Z,19.32
2022-10-01T03:19:53.387Z,18.33
2022-10-01T03:22:23.278Z,18.27
2022-10-01T03:24:52.693Z,20.29
2022-10-01T03:27:21.890Z,20.92
2022-10-01T03:29:50.373Z,19.77
2022-10-01T03:32:19.159Z,18.70
2022-10-01T03:34:48.254Z,17.92
2022-10-01T03:37:16.327Z,18.99
2022-10-01T03:39:44.306Z,20.81
2022-10-01T03:42:12.367Z,20.46
2022-10-01T03:44:41.239Z,19.21
2022-10-01T03:47:10.262Z,18.24
2022-10-01T03:49:38.424Z,18.32
2022-10-01T03:52:07.008Z,20.28
2022-10-01T03:54:35.078Z,20.92
2022-10-01T03:57:03.252Z,19.81
2022-10-01T03:59:31.323Z,18.72
2022-10-01T04:01:59.494Z,17.89
2022-10-01T04:04:29.211Z,18.75
2022-10-01T04:06:57.282Z,20.66
2022-10-01T04:09:25.354Z,20.61
2022-10-01T04:11:53.909Z,19.38
2022-10-01T04:14:22.311Z,18.32
2022-10-01T04:16:52.761Z,18.18
2022-10-01T04:19:21.013Z,20.11
2022-10-01T04:21:49.599Z,21.01
2022-10-01T04:24:17.673Z,19.93
2022-10-01T04:26:45.741Z,18.76
2022-10-01T04:29:13.813Z,17.91
2022-10-01T04:31:41.928Z,18.92
2022-10-01T04:34:10.057Z,20.84
2022-10-01T04:36:38.128Z,20.67
2022-10-01T04:39:06.302Z,19.39
2022-10-01T04:41:34.626Z,18.32
2022-10-01T04:44:03.367Z,18.30
2022-10-01T04:46:31.545Z,20.29
2022-10-01T04:49:00.122Z,21.02
2022-10-01T04:51:28.175Z,19.89
2022-10-01T04:53:56.469Z,18.77
2022-10-01T04:56:24.541Z,18.01
2022-10-01T04:58:52.614Z,19.17
2022-10-01T05:01:20.755Z,21.06
2022-10-01T05:03:48.960Z,20.56
2022-10-01T05:06:17.134Z,19.31
2022-10-01T05:08:45.207Z,18.36
2022-10-01T05:11:13.242Z,18.26
2022-10-01T05:13:42.444Z,20.35
2022-10-01T05:16:12.211Z,21.09
2022-10-01T05:18:43.740Z,19.94
2022-10-01T05:21:12.116Z,18.81
2022-10-01T05:23:40.187Z,17.96
2022-10-01T05:26:08.999Z,18.37
2022-10-01T05:28:37.300Z,20.45
2022-10-01T05:31:05.807Z,20.78
2022-10-01T05:33:34.523Z,19.55
2022-10-01T05:36:05.356Z,18.46
2022-10-01T05:38:37.525Z,18.22
2022-10-01T05:41:05.901Z,20.21
2022-10-01T05:43:34.179Z,20.95
2022-10-01T05:46:03.788Z,19.82
2022-10-01T05:48:37.238Z,18.69
2022-10-01T05:51:08.381Z,17.88
2022-10-01T05:53:37.895Z,18.90
2022-10-01T05:56:07.722Z,20.90
2022-10-01T05:58:35.816Z,20.63
2022-10-01T06:01:05.121Z,19.36
2022-10-01T06:03:33.497Z,18.33
2022-10-01T06:06:01.568Z,18.14
2022-10-01T06:08:29.640Z,20.08
2022-10-01T06:11:04.775Z,20.94
2022-10-01T06:13:33.562Z,19.80
2022-10-01T06:16:01.985Z,18.70
2022-10-01T06:18:31.343Z,17.86
2022-10-01T06:21:00.131Z,17.90
2022-10-01T06:23:28.642Z,20.00
2022-10-01T06:25:56.786Z,21.02
2022-10-01T06:28:24.912Z,19.95
2022-10-01T06:30:53.135Z,18.77
2022-10-01T06:33:21.306Z,17.88
2022-10-01T06:35:51.121Z,17.83
2022-10-01T06:38:21.960Z,19.91
2022-10-01T06:40:58.533Z,21.02
2022-10-01T06:43:29.464Z,19.91
2022-10-01T06:46:02.949Z,18.75
2022-10-01T06:48:32.599Z,17.92
2022-10-01T06:51:00.757Z,18.84
2022-10-01T06:53:29.124Z,20.89
2022-10-01T06:55:57.399Z,20.85
2022-10-01T06:58:28.668Z,19.62
2022-10-01T07:01:02.240Z,18.58
2022-10-01T07:03:31.415Z,18.33
2022-10-01T07:06:05.475Z,20.28
2022-10-01T07:08:33.631Z,21.06
2022-10-01T07:11:03.236Z,19.96
2022-10-01T07:13:31.613Z,18.92
2022-10-01T07:15:59.749Z,18.15
2022-10-01T07:18:27.961Z,18.42
2022-10-01T07:20:59.412Z,20.59
2022-10-01T07:23:27.587Z,21.29
2022-10-01T07:25:55.759Z,20.17
2022-10-01T07:28:25.902Z,19.13
2022-10-01T07:31:03.063Z,18.37
2022-10-01T07:33:31.237Z,18.68
2022-10-01T07:36:05.519Z,20.77
2022-10-01T07:38:34.041Z,21.04
2022-10-01T07:41:03.493Z,19.89
2022-10-01T07:43:33.462Z,18.93
2022-10-01T07:46:03.110Z,18.82
2022-10-01T07:48:31.342Z,20.78
2022-10-01T07:50:59.409Z,21.40
2022-10-01T07:53:28.508Z,20.33
2022-10-01T07:56:00.582Z,19.32
2022-10-01T07:58:28.539Z,18.59
2022-10-01T08:00:58.996Z,18.36
2022-10-01T08:03:27.550Z,20.29
2022-10-01T08:05:56.235Z,21.53
2022-10-01T08:08:25.331Z,20.63
2022-10-01T08:10:53.504Z,19.55
2022-10-01T08:13:25.160Z,18.75
2022-10-01T08:15:55.034Z,18.82
2022-10-01T08:18:24.580Z,20.95
2022-10-01T08:20:52.796Z,21.58
2022-10-01T08:23:21.849Z,20.50
2022-10-01T08:25:49.924Z,19.49
2022-10-01T08:28:18.481Z,18.77
2022-10-01T08:30:46.779Z,18.95
2022-10-01T08:33:15.055Z,21.12
2022-10-01T08:35:43.926Z,21.80
2022-10-01T08:38:13.379Z,20.67
2022-10-01T08:40:52.275Z,19.62
2022-10-01T08:43:38.682Z,18.84
2022-10-01T08:46:16.673Z,19.07
2022-10-01T08:49:06.767Z,21.36
2022-10-01T08:51:58.288Z,21.29
2022-10-01T08:54:40.061Z,20.00
2022-10-01T08:57:18.369Z,19.10
2022-10-01T08:59:51.657Z,18.47
2022-10-01T09:02:42.285Z,19.21
2022-10-01T09:05:39.543Z,21.61
2022-10-01T09:08:07.510Z,21.11
2022-10-01T09:10:48.075Z,19.97
2022-10-01T09:13:16.145Z,19.08
2022-10-01T09:16:08.582Z,19.06
2022-10-01T09:18:43.318Z,21.46
2022-10-01T09:21:21.116Z,21.69
2022-10-01T09:24:03.516Z,20.48
2022-10-01T09:26:32.335Z,19.48
2022-10-01T09:29:03.048Z,18.83
2022-10-01T09:31:40.576Z,19.06
2022-10-01T09:34:15.673Z,21.40
2022-10-01T09:37:06.682Z,21.84
2022-10-01T09:39:40.385Z,20.51
2022-10-01T09:42:09.582Z,19.53
2022-10-01T09:44:37.969Z,18.86
2022-10-01T09:47:17.813Z,19.17
2022-10-01T09:49:46.479Z,21.53
2022-10-01T09:52:34.129Z,21.89
2022-10-01T09:55:20.326Z,20.57
2022-10-01T09:58:03.547Z,19.52
2022-10-01T10:00:32.745Z,18.84
2022-10-01T10:03:01.317Z,19.86
2022-10-01T10:05:40.152Z,21.93
2022-10-01T10:08:20.535Z,21.71
2022-10-01T10:11:00.596Z,20.44
2022-10-01T10:13:39.382Z,19.50
2022-10-01T10:16:27.900Z,18.98
2022-10-01T10:19:04.336Z,20.80
2022-10-01T10:21:35.463Z,22.20
2022-10-01T10:24:25.331Z,21.24
2022-10-01T10:26:59.835Z,20.00
2022-10-01T10:29:31.734Z,19.21
2022-10-01T10:32:04.393Z,19.50
2022-10-01T10:34:42.707Z,21.77
2022-10-01T10:37:20.096Z,22.14
2022-10-01T10:39:54.207Z,20.89
2022-10-01T10:42:23.291Z,19.86
2022-10-01T10:44:55.144Z,19.16
2022-10-01T10:47:24.564Z,19.49
2022-10-01T10:50:04.522Z,21.64
2022-10-01T10:52:36.798Z,22.13
2022-10-01T10:55:25.278Z,20.95
2022-10-01T10:57:57.767Z,19.84
2022-10-01T11:00:27.170Z,19.15
2022-10-01T11:03:01.737Z,19.80
2022-10-01T11:05:41.558Z,22.03
2022-10-01T11:08:18.871Z,22.18
2022-10-01T11:10:47.054Z,20.91
2022-10-01T11:13:33.730Z,19.93
2022-10-01T11:16:45.142Z,19.22
2022-10-01T11:20:10.967Z,20.99
2022-10-01T11:22:42.623Z,22.14
2022-10-01T11:25:23.495Z,20.93
2022-10-01T11:27:57.772Z,19.84
2022-10-01T11:30:37.761Z,20.20
2022-10-01T11:33:15.149Z,22.31
2022-10-01T11:36:31.570Z,22.25
2022-10-01T11:39:05.054Z,20.64
2022-10-01T11:41:45.340Z,19.71
2022-10-01T11:44:13.996Z,19.92
2022-10-01T11:46:55.742Z,21.98
2022-10-01T11:50:04.922Z,22.24
2022-10-01T11:52:43.235Z,20.67
2022-10-01T11:55:45.407Z,19.67
2022-10-01T11:58:51.773Z,19.83
2022-10-01T12:01:36.314Z,21.74
2022-10-01T12:04:36.151Z,21.43
2022-10-01T12:07:20.488Z,20.13
2022-10-01T12:10:26.154Z,19.29
2022-10-01T12:13:13.374Z,19.95
2022-10-01T12:15:48.033Z,22.10
2022-10-01T12:18:28.461Z,21.78
2022-10-01T12:21:00.629Z,20.50
2022-10-01T12:23:35.156Z,19.57
2022-10-01T12:26:42.539Z,19.50
2022-10-01T12:29:24.030Z,21.88
2022-10-01T12:32:11.149Z,21.99
2022-10-01T12:35:17.937Z,20.65
2022-10-01T12:38:04.635Z,19.52
2022-10-01T12:40:44.892Z,20.45
2022-10-01T12:43:39.383Z,22.48
2022-10-01T12:46:16.497Z,21.87
2022-10-01T12:48:46.077Z,20.61
2022-10-01T12:51:39.334Z,19.72
2022-10-01T12:54:18.062Z,20.24
2022-10-01T12:56:52.681Z,22.27
2022-10-01T13:00:08.815Z,22.28
2022-10-01T13:03:05.009Z,20.69
2022-10-01T13:05:57.145Z,19.76
2022-10-01T13:08:33.816Z,21.23
2022-10-01T13:11:36.704Z,22.64
2022-10-01T13:14:07.543Z,21.68
2022-10-01T13:16:55.702Z,20.51
2022-10-01T13:20:16.081Z,19.77
2022-10-01T13:22:58.796Z,21.71
2022-10-01T13:25:38.954Z,22.57
2022-10-01T13:28:22.778Z,21.43
2022-10-01T13:31:00.659Z,20.26
2022-10-01T13:33:36.342Z,20.29
2022-10-01T13:36:06.617Z,22.11
2022-10-01T13:38:43.657Z,22.60
2022-10-01T13:41:30.358Z,21.43
2022-10-01T13:44:11.846Z,20.29
2022-10-01T13:47:13.499Z,20.42
2022-10-01T13:49:43.209Z,22.47
2022-10-01T13:52:20.704Z,22.41
2022-10-01T13:54:55.329Z,21.16
2022-10-01T13:57:34.256Z,20.17
2022-10-01T14:00:17.502Z,20.52
2022-10-01T14:03:05.267Z,22.43
2022-10-01T14:05:42.910Z,22.38
2022-10-01T14:08:44.259Z,21.11
2022-10-01T14:11:36.091Z,20.04
2022-10-01T14:14:40.921Z,21.20
2022-10-01T14:17:10.938Z,22.77
2022-10-01T14:19:47.409Z,22.01
2022-10-01T14:22:46.301Z,20.83
2022-10-01T14:25:42.225Z,20.66
2022-10-01T14:28:34.872Z,22.70
2022-10-01T14:31:08.847Z,22.55
2022-10-01T14:34:19.450Z,21.23
2022-10-01T14:36:52.846Z,20.10
2022-10-01T14:39:30.855Z,21.28
2022-10-01T14:41:59.333Z,22.93
2022-10-01T14:44:37.234Z,22.26
2022-10-01T14:47:19.441Z,21.00
2022-10-01T14:49:49.350Z,20.21
2022-10-01T14:52:20.187Z,21.60
2022-10-01T14:55:13.216Z,22.89
2022-10-01T14:57:49.713Z,21.79
2022-10-01T15:00:20.958Z,20.60
2022-10-01T15:03:03.573Z,20.45
2022-10-01T15:05:34.817Z,22.33
2022-10-01T15:08:10.364Z,22.90
2022-10-01T15:10:42.310Z,21.72
2022-10-01T15:13:20.129Z,20.63
2022-10-01T15:15:48.401Z,20.51
2022-10-01T15:18:18.315Z,22.42
2022-10-01T15:20:52.124Z,22.82
2022-10-01T15:23:22.346Z,21.60
2022-10-01T15:25:51.172Z,20.54
2022-10-01T15:28:34.051Z,20.32
2022-10-01T15:31:07.203Z,22.09
2022-10-01T15:33:40.673Z,22.65
2022-10-01T15:36:19.084Z,21.51
2022-10-01T15:38:49.154Z,20.31
2022-10-01T15:41:31.524Z,20.31
2022-10-01T15:44:05.692Z,22.10
2022-10-01T15:46:35.779Z,22.59
2022-10-01T15:49:20.160Z,21.44
2022-10-01T15:52:11.691Z,20.28
2022-10-01T15:54:42.729Z,20.47
2022-10-01T15:57:18.979Z,22.29
2022-10-01T15:59:49.724Z,22.50
2022-10-01T16:02:22.543Z,21.31
2022-10-01T16:04:56.823Z,20.27
2022-10-01T16:07:30.629Z,20.30
2022-10-01T16:10:12.422Z,22.22
2022-10-01T16:12:40.802Z,22.42
2022-10-01T16:15:30.172Z,21.25
2022-10-01T16:18:02.629Z,20.14
2022-10-01T16:20:37.475Z,20.31
2022-10-01T16:23:42.825Z,22.31
2022-10-01T16:26:29.223Z,22.40
2022-10-01T16:29:00.373Z,21.05
2022-10-01T16:31:30.808Z,20.10
2022-10-01T16:33:59.068Z,20.42
2022-10-01T16:36:28.368Z,22.31
2022-10-01T16:38:58.324Z,22.57
2022-10-01T16:41:29.475Z,21.36
2022-10-01T16:43:59.444Z,20.31
2022-10-01T16:46:27.924Z,20.16
2022-10-01T16:48:55.996Z,21.99
2022-10-01T16:51:24.068Z,22.69
2022-10-01T16:53:54.708Z,21.58
2022-10-01T16:56:27.109Z,20.46
2022-10-01T16:58:55.555Z,20.15
2022-10-01T17:01:23.652Z,21.91
2022-10-01T17:03:51.797Z,22.69
2022-10-01T17:06:19.868Z,21.64
2022-10-01T17:08:47.940Z,20.53
2022-10-01T17:11:16.114Z,19.83
2022-10-01T17:13:44.184Z,21.04
2022-10-01T17:16:12.320Z,22.62
2022-10-01T17:18:40.431Z,22.10
2022-10-01T17:21:09.760Z,20.85
2022-10-01T17:23:37.904Z,19.89
2022-10-01T17:26:09.543Z,20.47
2022-10-01T17:28:37.633Z,22.37
2022-10-01T17:31:08.729Z,22.42
2022-10-01T17:33:38.586Z,21.16
2022-10-01T17:36:07.886Z,20.11
2022-10-01T17:38:36.059Z,20.27
2022-10-01T17:41:04.336Z,22.13
2022-10-01T17:43:32.714Z,22.58
2022-10-01T17:46:01.655Z,21.38
2022-10-01T17:48:30.289Z,20.22
2022-10-01T17:51:00.512Z,20.00
2022-10-01T17:53:34.192Z,21.76
2022-10-01T17:56:09.444Z,22.60
2022-10-01T17:58:40.556Z,21.42
2022-10-01T18:01:13.697Z,20.17
2022-10-01T18:03:41.860Z,19.89
2022-10-01T18:06:14.540Z,21.68
2022-10-01T18:08:58.421Z,22.50
2022-10-01T18:11:28.400Z,21.22
2022-10-01T18:13:57.496Z,20.02
2022-10-01T18:16:26.449Z,20.10
2022-10-01T18:21:49.525Z,22.26
2022-10-01T18:24:18.557Z,20.98
2022-10-01T18:26:47.946Z,19.90
2022-10-01T18:29:20.519Z,20.17
2022-10-01T18:32:01.724Z,22.18
2022-10-01T18:34:30.501Z,22.27
2022-10-01T18:37:07.685Z,20.99
2022-10-01T18:39:35.961Z,19.84
2022-10-01T18:42:21.441Z,20.08
2022-10-01T18:44:58.421Z,22.13
2022-10-01T18:47:39.600Z,22.10
2022-10-01T18:50:14.533Z,20.76
2022-10-01T18:52:54.893Z,19.71
2022-10-01T18:56:18.467Z,19.98
2022-10-01T18:58:46.549Z,22.27
2022-10-01T19:01:35.947Z,21.82
2022-10-01T19:04:35.312Z,20.42
2022-10-01T19:07:22.635Z,19.58
2022-10-01T19:09:56.824Z,21.33
2022-10-01T19:12:36.290Z,22.43
2022-10-01T19:15:13.886Z,21.32
2022-10-01T19:18:05.307Z,20.12
2022-10-01T19:20:45.941Z,19.98
2022-10-01T19:23:49.443Z,21.97
2022-10-01T19:26:24.799Z,21.92
2022-10-01T19:29:04.761Z,20.62
2022-10-01T19:32:02.558Z,19.59
2022-10-01T19:34:38.178Z,19.93
2022-10-01T19:37:30.931Z,21.95
2022-10-01T19:40:07.191Z,21.77
2022-10-01T19:42:40.284Z,20.49
2022-10-01T19:45:25.059Z,19.51
2022-10-01T19:48:06.632Z,19.59
2022-10-01T19:50:40.134Z,21.69
2022-10-01T19:53:21.820Z,21.98
2022-10-01T19:55:52.651Z,20.63
2022-10-01T19:58:21.644Z,19.53
2022-10-01T20:00:57.846Z,19.44
2022-10-01T20:03:38.737Z,21.43
2022-10-01T20:06:17.532Z,21.97
2022-10-01T20:08:56.021Z,20.62
2022-10-01T20:11:31.568Z,19.34
2022-10-01T20:14:56.266Z,19.26
2022-10-01T20:17:58.121Z,21.66
2022-10-01T20:20:26.303Z,21.34
2022-10-01T20:23:08.610Z,19.97
2022-10-01T20:25:55.114Z,18.93
2022-10-01T20:28:41.512Z,20.26
2022-10-01T20:31:36.963Z,21.77
2022-10-01T20:34:42.580Z,20.69
2022-10-01T20:37:35.223Z,19.20
2022-10-01T20:40:25.309Z,19.23
2022-10-01T20:43:02.396Z,21.03
2022-10-01T20:45:34.468Z,20.46
2022-10-01T20:48:41.564Z,18.92
2022-10-01T20:51:30.711Z,18.68
2022-10-01T20:54:07.135Z,20.56
2022-10-01T20:56:42.402Z,20.03
2022-10-01T20:59:25.544Z,18.68
2022-10-01T21:02:02.711Z,18.29
2022-10-01T21:04:54.046Z,20.08
2022-10-01T21:07:37.476Z,20.38
2022-10-01T21:10:33.812Z,18.86
2022-10-01T21:13:14.683Z,17.66
2022-10-01T21:16:05.951Z,19.11
2022-10-01T21:18:57.425Z,20.04
2022-10-01T21:22:07.781Z,18.67
2022-10-01T21:25:12.921Z,17.20
2022-10-01T21:28:13.129Z,17.36
2022-10-01T21:31:25.336Z,19.70
2022-10-01T21:34:03.841Z,18.99
2022-10-01T21:36:39.467Z,17.63
2022-10-01T21:39:29.401Z,16.69
2022-10-01T21:42:15.595Z,17.04
2022-10-01T21:45:05.274Z,19.45
2022-10-01T21:48:03.576Z,19.20
2022-10-01T21:50:49.857Z,17.68
2022-10-01T21:54:09.209Z,16.70
2022-10-01T21:56:46.411Z,17.44
2022-10-01T21:59:36.090Z,19.62
2022-10-01T22:02:34.009Z,19.05
2022-10-01T22:05:40.302Z,17.59
2022-10-01T22:08:23.555Z,16.56
2022-10-01T22:10:59.307Z,16.85
2022-10-01T22:13:35.365Z,19.25
2022-10-01T22:16:11.164Z,19.50
2022-10-01T22:18:51.884Z,18.11
2022-10-01T22:21:35.625Z,16.94
2022-10-01T22:24:10.146Z,16.95
2022-10-01T22:26:45.184Z,19.23
2022-10-01T22:29:24.030Z,19.66
2022-10-01T22:31:58.482Z,18.30
2022-10-01T22:34:34.381Z,17.13
2022-10-01T22:37:08.391Z,16.29
2022-10-01T22:39:45.786Z,16.82
2022-10-01T22:42:21.122Z,19.11
2022-10-01T22:44:49.194Z,19.31
2022-10-01T22:47:35.800Z,17.92
2022-10-01T22:50:20.363Z,16.57
2022-10-01T22:53:00.205Z,16.48
2022-10-01T22:55:52.841Z,18.79
2022-10-01T22:58:54.260Z,18.74
2022-10-01T23:01:47.785Z,17.18
2022-10-01T23:04:49.534Z,16.02
2022-10-01T23:08:03.380Z,16.74
2022-10-01T23:11:03.604Z,19.01
2022-10-01T23:13:50.773Z,17.90
2022-10-01T23:16:44.159Z,16.48
2022-10-01T23:19:32.228Z,16.41
2022-10-01T23:22:25.741Z,18.61
2022-10-01T23:25:18.053Z,18.68
2022-10-01T23:27:53.730Z,17.17
2022-10-01T23:30:22.344Z,16.16
2022-10-01T23:33:20.138Z,16.57
2022-10-01T23:36:05.311Z,18.95
2022-10-01T23:38:36.760Z,18.58
2022-10-01T23:41:28.575Z,17.14
2022-10-01T23:44:14.375Z,15.95
2022-10-01T23:46:47.337Z,16.28
2022-10-01T23:49:19.942Z,18.56
2022-10-01T23:52:27.741Z,19.06
2022-10-01T23:55:22.130Z,17.42
2022-10-01T23:58:00.934Z,16.21
